sensor_id;sensor_type;location;lat;lon;timestamp;pressure;altitude;pressure_sealevel;temperature;humidity
33795;BME280;51430;52.242;21.118;2023-04-19T00:00:59;100685.09;;;11.57;77.49
33795;BME280;51430;52.242;21.118;2023-04-19T00:03:27;100683.81;;;11.47;79.48
33795;BME280;51430;52.242;21.118;2023-04-19T00:05:55;100677.32;;;11.33;82.25
33795;BME280;51430;52.242;21.118;2023-04-19T00:08:25;100670.89;;;11.24;85.10
33795;BME280;51430;52.242;21.118;2023-04-19T00:10:51;100668.06;;;11.15;86.59
33795;BME280;51430;52.242;21.118;2023-04-19T00:13:18;100665.86;;;11.02;87.60
33795;BME280;51430;52.242;21.118;2023-04-19T00:15:44;100659.77;;;10.85;88.53
33795;BME280;51430;52.242;21.118;2023-04-19T00:18:11;100662.02;;;10.71;89.32
33795;BME280;51430;52.242;21.118;2023-04-19T00:20:38;100659.79;;;10.68;89.40
33795;BME280;51430;52.242;21.118;2023-04-19T00:23:04;100656.45;;;10.68;89.47
33795;BME280;51430;52.242;21.118;2023-04-19T00:25:31;100658.90;;;10.54;89.90
33795;BME280;51430;52.242;21.118;2023-04-19T00:27:59;100658.83;;;10.45;90.37
33795;BME280;51430;52.242;21.118;2023-04-19T00:30:26;100654.81;;;10.42;90.83
33795;BME280;51430;52.242;21.118;2023-04-19T00:32:52;100653.11;;;10.37;91.62
33795;BME280;51430;52.242;21.118;2023-04-19T00:35:19;100646.71;;;10.39;92.02
33795;BME280;51430;52.242;21.118;2023-04-19T00:37:45;100643.73;;;10.29;92.30
33795;BME280;51430;52.242;21.118;2023-04-19T00:40:12;100644.19;;;10.23;92.87
33795;BME280;51430;52.242;21.118;2023-04-19T00:42:38;100643.97;;;10.26;93.12
33795;BME280;51430;52.242;21.118;2023-04-19T00:45:05;100638.56;;;10.26;93.37
33795;BME280;51430;52.242;21.118;2023-04-19T00:47:32;100635.11;;;10.21;93.75
33795;BME280;51430;52.242;21.118;2023-04-19T00:49:59;100632.14;;;10.11;94.36
33795;BME280;51430;52.242;21.118;2023-04-19T00:52:25;100630.23;;;10.06;94.73
33795;BME280;51430;52.242;21.118;2023-04-19T00:54:52;100627.34;;;9.97;95.18
33795;BME280;51430;52.242;21.118;2023-04-19T00:57:19;100622.56;;;9.95;95.21
33795;BME280;51430;52.242;21.118;2023-04-19T00:59:46;100625.16;;;9.91;95.62
33795;BME280;51430;52.242;21.118;2023-04-19T01:02:13;100618.89;;;9.88;95.81
33795;BME280;51430;52.242;21.118;2023-04-19T01:04:40;100618.67;;;9.89;95.78
33795;BME280;51430;52.242;21.118;2023-04-19T01:07:07;100615.44;;;9.82;95.66
33795;BME280;51430;52.242;21.118;2023-04-19T01:09:34;100613.70;;;9.82;95.65
33795;BME280;51430;52.242;21.118;2023-04-19T01:12:00;100606.88;;;9.85;95.88
33795;BME280;51430;52.242;21.118;2023-04-19T01:14:29;100608.55;;;9.87;95.94
33795;BME280;51430;52.242;21.118;2023-04-19T01:16:56;100600.73;;;9.86;96.16
33795;BME280;51430;52.242;21.118;2023-04-19T01:19:23;100597.36;;;9.87;96.17
33795;BME280;51430;52.242;21.118;2023-04-19T01:21:49;100596.83;;;9.82;96.36
33795;BME280;51430;52.242;21.118;2023-04-19T01:24:17;100594.43;;;9.79;96.41
33795;BME280;51430;52.242;21.118;2023-04-19T01:26:44;100593.88;;;9.77;96.88
33795;BME280;51430;52.242;21.118;2023-04-19T01:29:10;100593.16;;;9.77;97.18
33795;BME280;51430;52.242;21.118;2023-04-19T01:31:37;100590.06;;;9.77;97.44
33795;BME280;51430;52.242;21.118;2023-04-19T01:34:03;100585.34;;;9.75;97.73
33795;BME280;51430;52.242;21.118;2023-04-19T01:36:30;100583.73;;;9.73;97.97
33795;BME280;51430;52.242;21.118;2023-04-19T01:38:57;100580.41;;;9.65;98.29
33795;BME280;51430;52.242;21.118;2023-04-19T01:41:23;100577.89;;;9.57;98.59
33795;BME280;51430;52.242;21.118;2023-04-19T01:43:52;100578.30;;;9.46;99.05
33795;BME280;51430;52.242;21.118;2023-04-19T01:46:18;100573.88;;;9.44;99.42
33795;BME280;51430;52.242;21.118;2023-04-19T01:48:45;100573.71;;;9.41;99.48
33795;BME280;51430;52.242;21.118;2023-04-19T01:51:11;100575.64;;;9.46;99.67
33795;BME280;51430;52.242;21.118;2023-04-19T01:53:38;100574.39;;;9.47;99.74
33795;BME280;51430;52.242;21.118;2023-04-19T01:56:04;100572.63;;;9.44;99.90
33795;BME280;51430;52.242;21.118;2023-04-19T01:58:31;100572.31;;;9.44;99.98
33795;BME280;51430;52.242;21.118;2023-04-19T02:00:57;100569.27;;;9.48;100.00
33795;BME280;51430;52.242;21.118;2023-04-19T02:03:24;100570.59;;;9.49;100.00
33795;BME280;51430;52.242;21.118;2023-04-19T02:05:50;100567.41;;;9.47;100.00
33795;BME280;51430;52.242;21.118;2023-04-19T02:08:16;100568.72;;;9.46;99.97
33795;BME280;51430;52.242;21.118;2023-04-19T02:10:43;100569.69;;;9.44;99.89
33795;BME280;51430;52.242;21.118;2023-04-19T02:13:09;100571.29;;;9.39;99.94
33795;BME280;51430;52.242;21.118;2023-04-19T02:15:36;100569.27;;;9.30;100.00
33795;BME280;51430;52.242;21.118;2023-04-19T02:18:02;100569.05;;;9.28;100.00
33795;BME280;51430;52.242;21.118;2023-04-19T02:20:32;100565.16;;;9.29;100.00
33795;BME280;51430;52.242;21.118;2023-04-19T02:22:58;100567.06;;;9.34;100.00
33795;BME280;51430;52.242;21.118;2023-04-19T02:25:24;100565.79;;;9.38;100.00
33795;BME280;51430;52.242;21.118;2023-04-19T02:27:51;100563.57;;;9.37;100.00
33795;BME280;51430;52.242;21.118;2023-04-19T02:30:17;100563.73;;;9.37;100.00
33795;BME280;51430;52.242;21.118;2023-04-19T02:32:46;100567.19;;;9.45;100.00
33795;BME280;51430;52.242;21.118;2023-04-19T02:35:13;100563.10;;;9.46;100.00
33795;BME280;51430;52.242;21.118;2023-04-19T02:37:39;100565.16;;;9.37;100.00
33795;BME280;51430;52.242;21.118;2023-04-19T02:40:06;100560.30;;;9.37;100.00
33795;BME280;51430;52.242;21.118;2023-04-19T02:42:33;100560.48;;;9.36;100.00
33795;BME280;51430;52.242;21.118;2023-04-19T02:44:59;100558.02;;;9.34;100.00
33795;BME280;51430;52.242;21.118;2023-04-19T02:47:25;100556.92;;;9.30;100.00
33795;BME280;51430;52.242;21.118;2023-04-19T02:49:52;100559.30;;;9.33;100.00
33795;BME280;51430;52.242;21.118;2023-04-19T02:52:18;100555.87;;;9.35;100.00
33795;BME280;51430;52.242;21.118;2023-04-19T02:54:46;100555.41;;;9.27;100.00
33795;BME280;51430;52.242;21.118;2023-04-19T02:57:13;100551.09;;;9.19;100.00
33795;BME280;51430;52.242;21.118;2023-04-19T02:59:39;100546.43;;;9.13;100.00
33795;BME280;51430;52.242;21.118;2023-04-19T03:02:06;100543.92;;;9.06;100.00
33795;BME280;51430;52.242;21.118;2023-04-19T03:04:32;100541.02;;;9.03;100.00
33795;BME280;51430;52.242;21.118;2023-04-19T03:06:59;100540.67;;;9.08;100.00
33795;BME280;51430;52.242;21.118;2023-04-19T03:09:26;100534.13;;;9.07;100.00
33795;BME280;51430;52.242;21.118;2023-04-19T03:11:52;100534.84;;;9.06;100.00
33795;BME280;51430;52.242;21.118;2023-04-19T03:14:18;100530.50;;;9.06;100.00
33795;BME280;51430;52.242;21.118;2023-04-19T03:16:45;100529.77;;;9.04;100.00
33795;BME280;51430;52.242;21.118;2023-04-19T03:19:11;100528.45;;;9.06;100.00
33795;BME280;51430;52.242;21.118;2023-04-19T03:21:38;100524.05;;;9.10;100.00
33795;BME280;51430;52.242;21.118;2023-04-19T03:24:04;100521.25;;;9.07;100.00
33795;BME280;51430;52.242;21.118;2023-04-19T03:26:31;100515.77;;;9.01;100.00
33795;BME280;51430;52.242;21.118;2023-04-19T03:28:57;100514.65;;;8.99;100.00
33795;BME280;51430;52.242;21.118;2023-04-19T03:31:23;100506.30;;;8.97;100.00
33795;BME280;51430;52.242;21.118;2023-04-19T03:33:51;100506.90;;;8.90;100.00
33795;BME280;51430;52.242;21.118;2023-04-19T03:36:17;100500.37;;;8.89;100.00
33795;BME280;51430;52.242;21.118;2023-04-19T03:38:43;100498.92;;;8.88;100.00
33795;BME280;51430;52.242;21.118;2023-04-19T03:41:30;100499.64;;;8.82;100.00
33795;BME280;51430;52.242;21.118;2023-04-19T03:43:56;100496.74;;;8.73;100.00
33795;BME280;51430;52.242;21.118;2023-04-19T03:46:26;100497.20;;;8.72;100.00
33795;BME280;51430;52.242;21.118;2023-04-19T03:48:56;100494.28;;;8.74;100.00
33795;BME280;51430;52.242;21.118;2023-04-19T03:51:23;100489.15;;;8.81;100.00
33795;BME280;51430;52.242;21.118;2023-04-19T03:53:49;100487.88;;;8.81;100.00
33795;BME280;51430;52.242;21.118;2023-04-19T03:56:16;100487.33;;;8.82;100.00
33795;BME280;51430;52.242;21.118;2023-04-19T03:58:42;100485.48;;;8.81;100.00
33795;BME280;51430;52.242;21.118;2023-04-19T04:01:19;100479.34;;;8.82;100.00
33795;BME280;51430;52.242;21.118;2023-04-19T04:03:46;100481.59;;;8.77;100.00
33795;BME280;51430;52.242;21.118;2023-04-19T04:06:14;100477.19;;;8.77;100.00
33795;BME280;51430;52.242;21.118;2023-04-19T04:08:42;100481.11;;;8.73;100.00
33795;BME280;51430;52.242;21.118;2023-04-19T04:11:08;100477.20;;;8.75;100.00
33795;BME280;51430;52.242;21.118;2023-04-19T04:13:34;100477.76;;;8.74;100.00
33795;BME280;51430;52.242;21.118;2023-04-19T04:16:01;100474.73;;;8.75;100.00
33795;BME280;51430;52.242;21.118;2023-04-19T04:18:30;100473.70;;;8.75;100.00
33795;BME280;51430;52.242;21.118;2023-04-19T04:20:57;100471.10;;;8.78;100.00
33795;BME280;51430;52.242;21.118;2023-04-19T04:23:24;100469.52;;;8.75;100.00
33795;BME280;51430;52.242;21.118;2023-04-19T04:25:58;100467.54;;;8.79;100.00
33795;BME280;51430;52.242;21.118;2023-04-19T04:28:30;100468.02;;;8.77;100.00
33795;BME280;51430;52.242;21.118;2023-04-19T04:30:57;100467.30;;;8.82;100.00
33795;BME280;51430;52.242;21.118;2023-04-19T04:33:26;100465.02;;;8.83;100.00
33795;BME280;51430;52.242;21.118;2023-04-19T04:35:54;100460.48;;;8.85;100.00
33795;BME280;51430;52.242;21.118;2023-04-19T04:38:21;100458.90;;;8.78;100.00
33795;BME280;51430;52.242;21.118;2023-04-19T04:40:52;100458.08;;;8.77;100.00
33795;BME280;51430;52.242;21.118;2023-04-19T04:43:21;100459.43;;;8.78;100.00
33795;BME280;51430;52.242;21.118;2023-04-19T04:45:48;100454.66;;;8.74;100.00
33795;BME280;51430;52.242;21.118;2023-04-19T04:48:14;100454.20;;;8.70;100.00
33795;BME280;51430;52.242;21.118;2023-04-19T04:50:41;100452.64;;;8.70;100.00
33795;BME280;51430;52.242;21.118;2023-04-19T04:53:07;100448.88;;;8.74;100.00
33795;BME280;51430;52.242;21.118;2023-04-19T04:55:36;100451.05;;;8.73;100.00
33795;BME280;51430;52.242;21.118;2023-04-19T04:58:03;100446.40;;;8.75;100.00
33795;BME280;51430;52.242;21.118;2023-04-19T05:00:33;100443.78;;;8.78;100.00
33795;BME280;51430;52.242;21.118;2023-04-19T05:02:59;100443.19;;;8.74;100.00
33795;BME280;51430;52.242;21.118;2023-04-19T05:05:30;100439.97;;;8.73;100.00
33795;BME280;51430;52.242;21.118;2023-04-19T05:07:57;100445.10;;;8.79;100.00
33795;BME280;51430;52.242;21.118;2023-04-19T05:10:24;100444.91;;;8.82;100.00
33795;BME280;51430;52.242;21.118;2023-04-19T05:12:50;100443.60;;;8.91;100.00
33795;BME280;51430;52.242;21.118;2023-04-19T05:15:17;100444.97;;;8.94;100.00
33795;BME280;51430;52.242;21.118;2023-04-19T05:17:43;100446.97;;;8.97;100.00
33795;BME280;51430;52.242;21.118;2023-04-19T05:20:10;100444.14;;;9.01;100.00
33795;BME280;51430;52.242;21.118;2023-04-19T05:22:37;100445.05;;;9.10;100.00
33795;BME280;51430;52.242;21.118;2023-04-19T05:25:04;100441.15;;;9.14;100.00
33795;BME280;51430;52.242;21.118;2023-04-19T05:27:31;100439.45;;;9.11;100.00
33795;BME280;51430;52.242;21.118;2023-04-19T05:29:57;100439.05;;;9.09;100.00
33795;BME280;51430;52.242;21.118;2023-04-19T05:32:23;100437.77;;;9.17;100.00
33795;BME280;51430;52.242;21.118;2023-04-19T05:34:52;100439.69;;;9.25;100.00
33795;BME280;51430;52.242;21.118;2023-04-19T05:37:19;100438.66;;;9.34;100.00
33795;BME280;51430;52.242;21.118;2023-04-19T05:39:45;100441.20;;;9.45;100.00
33795;BME280;51430;52.242;21.118;2023-04-19T05:42:11;100441.73;;;9.47;100.00
33795;BME280;51430;52.242;21.118;2023-04-19T05:44:37;100437.98;;;9.46;100.00
33795;BME280;51430;52.242;21.118;2023-04-19T05:47:04;100436.17;;;9.45;100.00
33795;BME280;51430;52.242;21.118;2023-04-19T05:49:30;100432.44;;;9.51;100.00
33795;BME280;51430;52.242;21.118;2023-04-19T05:51:57;100431.73;;;9.51;100.00
33795;BME280;51430;52.242;21.118;2023-04-19T05:54:23;100434.27;;;9.47;100.00
33795;BME280;51430;52.242;21.118;2023-04-19T05:56:50;100435.96;;;9.58;100.00
33795;BME280;51430;52.242;21.118;2023-04-19T05:59:16;100434.51;;;9.66;100.00
33795;BME280;51430;52.242;21.118;2023-04-19T06:01:43;100434.30;;;9.67;100.00
33795;BME280;51430;52.242;21.118;2023-04-19T06:04:10;100436.34;;;9.60;100.00
33795;BME280;51430;52.242;21.118;2023-04-19T06:06:37;100435.69;;;9.66;100.00
33795;BME280;51430;52.242;21.118;2023-04-19T06:09:03;100436.40;;;9.76;100.00
33795;BME280;51430;52.242;21.118;2023-04-19T06:11:30;100433.15;;;9.80;100.00
33795;BME280;51430;52.242;21.118;2023-04-19T06:14:05;100431.41;;;9.92;100.00
33795;BME280;51430;52.242;21.118;2023-04-19T06:16:31;100432.74;;;10.05;100.00
33795;BME280;51430;52.242;21.118;2023-04-19T06:18:58;100430.29;;;10.22;100.00
33795;BME280;51430;52.242;21.118;2023-04-19T06:21:25;100427.80;;;10.35;100.00
33795;BME280;51430;52.242;21.118;2023-04-19T06:23:52;100428.34;;;10.41;100.00
33795;BME280;51430;52.242;21.118;2023-04-19T06:26:18;100427.13;;;10.51;100.00
33795;BME280;51430;52.242;21.118;2023-04-19T06:28:48;100423.89;;;10.61;100.00
33795;BME280;51430;52.242;21.118;2023-04-19T06:31:14;100420.95;;;10.65;99.76
33795;BME280;51430;52.242;21.118;2023-04-19T07:09:59;100434.78;;;10.94;94.58
33795;BME280;51430;52.242;21.118;2023-04-19T08:27:46;100431.69;;;12.28;86.12
33795;BME280;51430;52.242;21.118;2023-04-19T08:31:15;100437.71;;;12.01;86.73
33795;BME280;51430;52.242;21.118;2023-04-19T08:34:45;100437.06;;;12.14;86.86
33795;BME280;51430;52.242;21.118;2023-04-19T08:37:50;100437.31;;;12.10;86.69
33795;BME280;51430;52.242;21.118;2023-04-19T08:40:18;100437.39;;;12.29;85.31
33795;BME280;51430;52.242;21.118;2023-04-19T08:42:46;100439.66;;;12.33;84.55
33795;BME280;51430;52.242;21.118;2023-04-19T08:45:15;100441.86;;;12.27;82.54
33795;BME280;51430;52.242;21.118;2023-04-19T08:47:56;100442.39;;;12.25;82.31
33795;BME280;51430;52.242;21.118;2023-04-19T08:50:29;100441.74;;;12.29;82.38
33795;BME280;51430;52.242;21.118;2023-04-19T08:53:08;100443.95;;;12.27;82.61
33795;BME280;51430;52.242;21.118;2023-04-19T08:55:51;100447.25;;;12.23;83.55
33795;BME280;51430;52.242;21.118;2023-04-19T08:58:43;100450.55;;;12.19;84.01
33795;BME280;51430;52.242;21.118;2023-04-19T09:01:13;100450.92;;;12.17;84.25
33795;BME280;51430;52.242;21.118;2023-04-19T09:03:57;100450.25;;;12.17;84.34
33795;BME280;51430;52.242;21.118;2023-04-19T09:06:42;100451.63;;;12.08;82.01
33795;BME280;51430;52.242;21.118;2023-04-19T09:09:20;100453.95;;;11.99;82.65
33795;BME280;51430;52.242;21.118;2023-04-19T09:12:29;100449.15;;;11.74;82.91
33795;BME280;51430;52.242;21.118;2023-04-19T09:14:57;100450.11;;;11.82;83.32
33795;BME280;51430;52.242;21.118;2023-04-19T09:23:24;100455.83;;;11.78;83.15
33795;BME280;51430;52.242;21.118;2023-04-19T09:26:01;100464.06;;;11.75;84.01
33795;BME280;51430;52.242;21.118;2023-04-19T09:29:06;100464.27;;;11.80;84.62
33795;BME280;51430;52.242;21.118;2023-04-19T09:31:38;100463.05;;;11.86;85.41
33795;BME280;51430;52.242;21.118;2023-04-19T09:34:19;100465.29;;;11.95;85.51
33795;BME280;51430;52.242;21.118;2023-04-19T09:36:57;100463.83;;;12.03;84.76
33795;BME280;51430;52.242;21.118;2023-04-19T09:39:43;100460.98;;;12.03;83.39
33795;BME280;51430;52.242;21.118;2023-04-19T09:42:16;100464.89;;;11.98;83.12
33795;BME280;51430;52.242;21.118;2023-04-19T09:45:11;100467.86;;;11.96;83.00
33795;BME280;51430;52.242;21.118;2023-04-19T09:48:22;100464.00;;;11.91;84.50
33795;BME280;51430;52.242;21.118;2023-04-19T09:50:57;100462.27;;;11.94;84.82
33795;BME280;51430;52.242;21.118;2023-04-19T09:53:31;100463.45;;;11.99;85.12
33795;BME280;51430;52.242;21.118;2023-04-19T09:56:02;100465.98;;;12.04;84.79
33795;BME280;51430;52.242;21.118;2023-04-19T09:58:38;100465.11;;;12.04;84.15
33795;BME280;51430;52.242;21.118;2023-04-19T10:01:23;100466.55;;;12.03;83.94
33795;BME280;51430;52.242;21.118;2023-04-19T10:03:53;100468.38;;;12.11;84.60
33795;BME280;51430;52.242;21.118;2023-04-19T10:07:05;100468.19;;;12.09;83.92
33795;BME280;51430;52.242;21.118;2023-04-19T10:09:57;100468.39;;;11.93;84.76
33795;BME280;51430;52.242;21.118;2023-04-19T10:12:48;100470.59;;;11.97;85.50
33795;BME280;51430;52.242;21.118;2023-04-19T10:15:54;100470.05;;;11.97;85.81
33795;BME280;51430;52.242;21.118;2023-04-19T10:18:49;100475.52;;;11.74;85.98
33795;BME280;51430;52.242;21.118;2023-04-19T10:21:20;100470.05;;;11.77;85.61
33795;BME280;51430;52.242;21.118;2023-04-19T10:23:51;100472.80;;;11.75;85.99
33795;BME280;51430;52.242;21.118;2023-04-19T10:26:21;100472.66;;;11.75;85.11
33795;BME280;51430;52.242;21.118;2023-04-19T10:28:50;100469.66;;;11.80;84.91
33795;BME280;51430;52.242;21.118;2023-04-19T10:31:25;100472.48;;;11.86;85.45
33795;BME280;51430;52.242;21.118;2023-04-19T10:34:01;100472.27;;;11.93;85.75
33795;BME280;51430;52.242;21.118;2023-04-19T10:36:31;100472.71;;;12.01;85.42
33795;BME280;51430;52.242;21.118;2023-04-19T10:38:59;100474.44;;;12.03;85.75
33795;BME280;51430;52.242;21.118;2023-04-19T10:47:58;100471.59;;;12.59;85.62
33795;BME280;51430;52.242;21.118;2023-04-19T10:50:28;100470.20;;;12.74;84.77
33795;BME280;51430;52.242;21.118;2023-04-19T10:56:06;100469.66;;;12.86;83.11
33795;BME280;51430;52.242;21.118;2023-04-19T11:01:41;100474.95;;;13.00;83.46
33795;BME280;51430;52.242;21.118;2023-04-19T11:04:12;100474.40;;;13.07;83.52
33795;BME280;51430;52.242;21.118;2023-04-19T11:12:20;100474.36;;;13.92;80.95
33795;BME280;51430;52.242;21.118;2023-04-19T11:14:56;100477.91;;;14.23;78.66
33795;BME280;51430;52.242;21.118;2023-04-19T11:17:30;100477.05;;;14.50;76.19
33795;BME280;51430;52.242;21.118;2023-04-19T11:23:21;100477.44;;;15.55;73.53
33795;BME280;51430;52.242;21.118;2023-04-19T11:25:50;100470.61;;;16.27;71.24
33795;BME280;51430;52.242;21.118;2023-04-19T11:28:20;100475.05;;;17.11;69.34
33795;BME280;51430;52.242;21.118;2023-04-19T11:30:53;100478.67;;;17.44;67.45
33795;BME280;51430;52.242;21.118;2023-04-19T11:33:25;100478.98;;;17.34;66.52
33795;BME280;51430;52.242;21.118;2023-04-19T11:35:56;100475.36;;;17.05;67.73
33795;BME280;51430;52.242;21.118;2023-04-19T11:38:29;100475.11;;;17.15;65.74
33795;BME280;51430;52.242;21.118;2023-04-19T11:41:02;100476.50;;;17.45;64.31
33795;BME280;51430;52.242;21.118;2023-04-19T11:43:32;100477.98;;;18.10;63.49
33795;BME280;51430;52.242;21.118;2023-04-19T11:46:08;100478.02;;;18.41;58.74
33795;BME280;51430;52.242;21.118;2023-04-19T11:48:37;100478.30;;;18.71;57.84
33795;BME280;51430;52.242;21.118;2023-04-19T11:51:08;100482.23;;;18.86;56.48
33795;BME280;51430;52.242;21.118;2023-04-19T11:53:38;100482.70;;;18.53;55.59
33795;BME280;51430;52.242;21.118;2023-04-19T11:56:08;100477.38;;;17.69;56.69
33795;BME280;51430;52.242;21.118;2023-04-19T11:58:50;100480.36;;;17.12;59.49
33795;BME280;51430;52.242;21.118;2023-04-19T12:01:33;100473.80;;;16.82;58.37
33795;BME280;51430;52.242;21.118;2023-04-19T12:04:03;100474.73;;;16.73;58.93
33795;BME280;51430;52.242;21.118;2023-04-19T12:06:31;100474.73;;;16.85;59.89
33795;BME280;51430;52.242;21.118;2023-04-19T12:09:06;100478.77;;;16.89;60.77
33795;BME280;51430;52.242;21.118;2023-04-19T12:11:45;100477.66;;;16.63;61.71
33795;BME280;51430;52.242;21.118;2023-04-19T12:14:19;100482.76;;;16.41;63.08
33795;BME280;51430;52.242;21.118;2023-04-19T12:17:11;100481.38;;;16.25;63.49
33795;BME280;51430;52.242;21.118;2023-04-19T12:19:43;100486.55;;;16.26;62.33
33795;BME280;51430;52.242;21.118;2023-04-19T12:22:15;100487.60;;;16.16;62.14
33795;BME280;51430;52.242;21.118;2023-04-19T12:25:02;100493.81;;;15.97;62.78
33795;BME280;51430;52.242;21.118;2023-04-19T12:27:32;100496.88;;;15.78;63.27
33795;BME280;51430;52.242;21.118;2023-04-19T12:30:03;100496.44;;;15.79;63.76
33795;BME280;51430;52.242;21.118;2023-04-19T12:32:32;100496.25;;;15.77;63.63
33795;BME280;51430;52.242;21.118;2023-04-19T12:35:00;100500.54;;;15.55;63.91
33795;BME280;51430;52.242;21.118;2023-04-19T12:37:38;100498.90;;;15.38;64.62
33795;BME280;51430;52.242;21.118;2023-04-19T12:40:35;100500.62;;;15.14;65.00
33795;BME280;51430;52.242;21.118;2023-04-19T12:43:05;100502.15;;;15.09;64.49
33795;BME280;51430;52.242;21.118;2023-04-19T12:45:35;100505.52;;;15.01;64.27
33795;BME280;51430;52.242;21.118;2023-04-19T12:48:03;100507.27;;;15.01;64.13
33795;BME280;51430;52.242;21.118;2023-04-19T12:50:31;100505.36;;;15.06;63.59
33795;BME280;51430;52.242;21.118;2023-04-19T12:53:05;100503.02;;;15.16;65.04
33795;BME280;51430;52.242;21.118;2023-04-19T12:55:35;100504.27;;;15.48;63.63
33795;BME280;51430;52.242;21.118;2023-04-19T12:58:03;100506.77;;;15.98;63.29
33795;BME280;51430;52.242;21.118;2023-04-19T13:00:33;100501.51;;;16.48;62.69
33795;BME280;51430;52.242;21.118;2023-04-19T13:03:01;100501.23;;;16.77;60.98
33795;BME280;51430;52.242;21.118;2023-04-19T13:05:30;100498.83;;;17.11;59.51
33795;BME280;51430;52.242;21.118;2023-04-19T13:07:58;100494.61;;;17.39;58.34
33795;BME280;51430;52.242;21.118;2023-04-19T13:10:26;100491.19;;;17.72;58.79
33795;BME280;51430;52.242;21.118;2023-04-19T13:13:00;100494.89;;;17.98;58.48
33795;BME280;51430;52.242;21.118;2023-04-19T13:16:08;100493.16;;;18.08;56.51
33795;BME280;51430;52.242;21.118;2023-04-19T13:18:52;100496.13;;;18.32;57.07
33795;BME280;51430;52.242;21.118;2023-04-19T13:21:34;100491.60;;;18.72;55.94
33795;BME280;51430;52.242;21.118;2023-04-19T13:29:07;100497.31;;;19.21;53.75
33795;BME280;51430;52.242;21.118;2023-04-19T13:31:44;100496.14;;;18.90;54.72
33795;BME280;51430;52.242;21.118;2023-04-19T13:34:31;100494.91;;;18.50;55.09
33795;BME280;51430;52.242;21.118;2023-04-19T13:37:14;100493.66;;;18.17;55.86
33795;BME280;51430;52.242;21.118;2023-04-19T13:39:42;100490.05;;;17.96;56.73
33795;BME280;51430;52.242;21.118;2023-04-19T13:42:11;100490.27;;;17.94;57.31
33795;BME280;51430;52.242;21.118;2023-04-19T13:44:40;100489.42;;;17.95;55.07
33795;BME280;51430;52.242;21.118;2023-04-19T13:47:09;100491.54;;;17.90;56.03
33795;BME280;51430;52.242;21.118;2023-04-19T13:49:39;100488.23;;;17.75;57.23
33795;BME280;51430;52.242;21.118;2023-04-19T13:52:08;100488.30;;;17.71;57.79
33795;BME280;51430;52.242;21.118;2023-04-19T13:54:39;100482.35;;;17.77;57.21
33795;BME280;51430;52.242;21.118;2023-04-19T13:57:07;100483.13;;;17.68;58.25
33795;BME280;51430;52.242;21.118;2023-04-19T13:59:36;100487.61;;;17.54;58.41
33795;BME280;51430;52.242;21.118;2023-04-19T14:02:04;100481.25;;;17.62;57.90
33795;BME280;51430;52.242;21.118;2023-04-19T14:04:32;100477.39;;;17.92;58.05
33795;BME280;51430;52.242;21.118;2023-04-19T14:07:00;100479.04;;;18.48;57.07
33795;BME280;51430;52.242;21.118;2023-04-19T14:09:28;100485.20;;;19.88;54.32
33795;BME280;51430;52.242;21.118;2023-04-19T14:11:57;100480.27;;;20.50;50.77
33795;BME280;51430;52.242;21.118;2023-04-19T14:14:33;100480.67;;;20.26;50.75
33795;BME280;51430;52.242;21.118;2023-04-19T14:17:01;100476.84;;;20.28;51.17
33795;BME280;51430;52.242;21.118;2023-04-19T14:19:30;100474.50;;;20.46;50.03
33795;BME280;51430;52.242;21.118;2023-04-19T14:24:05;100477.36;;;21.30;49.25
33795;BME280;51430;52.242;21.118;2023-04-19T14:26:34;100481.70;;;21.67;48.84
33795;BME280;51430;52.242;21.118;2023-04-19T14:29:04;100481.50;;;22.52;46.85
33795;BME280;51430;52.242;21.118;2023-04-19T14:31:31;100476.55;;;23.14;44.12
33795;BME280;51430;52.242;21.118;2023-04-19T14:33:59;100478.79;;;23.85;43.39
33795;BME280;51430;52.242;21.118;2023-04-19T14:36:26;100480.21;;;25.17;40.79
33795;BME280;51430;52.242;21.118;2023-04-19T14:38:56;100486.11;;;26.22;38.08
33795;BME280;51430;52.242;21.118;2023-04-19T14:41:23;100481.21;;;26.21;38.32
33795;BME280;51430;52.242;21.118;2023-04-19T14:43:57;100488.55;;;26.77;37.78
33795;BME280;51430;52.242;21.118;2023-04-19T14:48:08;100490.15;;;26.48;37.81
33795;BME280;51430;52.242;21.118;2023-04-19T14:51:42;100483.33;;;24.15;41.07
33795;BME280;51430;52.242;21.118;2023-04-19T14:55:01;100479.48;;;21.68;45.68
33795;BME280;51430;52.242;21.118;2023-04-19T14:57:31;100475.09;;;20.79;47.96
33795;BME280;51430;52.242;21.118;2023-04-19T14:59:59;100475.51;;;20.32;49.25
33795;BME280;51430;52.242;21.118;2023-04-19T15:02:29;100481.85;;;19.70;51.09
33795;BME280;51430;52.242;21.118;2023-04-19T15:04:57;100486.50;;;19.43;52.63
33795;BME280;51430;52.242;21.118;2023-04-19T15:07:35;100499.08;;;19.01;53.74
33795;BME280;51430;52.242;21.118;2023-04-19T15:10:05;100511.66;;;18.33;56.49
33795;BME280;51430;52.242;21.118;2023-04-19T15:12:33;100502.90;;;17.32;61.87
33795;BME280;51430;52.242;21.118;2023-04-19T15:15:01;100512.55;;;16.25;66.26
33795;BME280;51430;52.242;21.118;2023-04-19T15:17:31;100524.35;;;15.31;67.19
33795;BME280;51430;52.242;21.118;2023-04-19T15:20:01;100524.59;;;14.59;68.15
33795;BME280;51430;52.242;21.118;2023-04-19T15:23:07;100521.23;;;14.03;69.54
33795;BME280;51430;52.242;21.118;2023-04-19T15:26:02;100517.30;;;13.37;72.26
33795;BME280;51430;52.242;21.118;2023-04-19T15:28:32;100515.13;;;13.07;74.27
33795;BME280;51430;52.242;21.118;2023-04-19T15:31:05;100504.27;;;13.01;73.91